sensor_id;sensor_type;location;lat;lon;timestamp;temperature;humidity
14016;DHT22;7083;48.854;9.158;2023-04-06T00:02:12;-1.20;99.90
14016;DHT22;7083;48.854;9.158;2023-04-06T00:04:40;-1.30;99.90
14016;DHT22;7083;48.854;9.158;2023-04-06T00:07:07;-1.30;99.90
14016;DHT22;7083;48.854;9.158;2023-04-06T00:09:33;-1.30;99.90
14016;DHT22;7083;48.854;9.158;2023-04-06T00:12:00;-1.40;99.90
14016;DHT22;7083;48.854;9.158;2023-04-06T00:14:27;-1.40;99.90
14016;DHT22;7083;48.854;9.158;2023-04-06T00:16:54;-1.40;99.90
14016;DHT22;7083;48.854;9.158;2023-04-06T00:19:21;-1.40;99.90
14016;DHT22;7083;48.854;9.158;2023-04-06T00:21:49;-1.50;99.90
14016;DHT22;7083;48.854;9.158;2023-04-06T00:24:16;-1.50;99.90
14016;DHT22;7083;48.854;9.158;2023-04-06T00:26:43;-1.50;99.90
14016;DHT22;7083;48.854;9.158;2023-04-06T00:29:09;-1.50;99.90
14016;DHT22;7083;48.854;9.158;2023-04-06T00:31:36;-1.50;99.90
14016;DHT22;7083;48.854;9.158;2023-04-06T00:34:03;-1.50;99.90
14016;DHT22;7083;48.854;9.158;2023-04-06T00:36:30;-1.50;99.90
14016;DHT22;7083;48.854;9.158;2023-04-06T00:38:58;-1.50;99.90
14016;DHT22;7083;48.854;9.158;2023-04-06T00:41:25;-1.50;99.90
14016;DHT22;7083;48.854;9.158;2023-04-06T00:43:53;-1.50;99.90
14016;DHT22;7083;48.854;9.158;2023-04-06T00:46:19;-1.50;99.90
14016;DHT22;7083;48.854;9.158;2023-04-06T00:48:46;-1.50;99.90
14016;DHT22;7083;48.854;9.158;2023-04-06T00:51:13;-1.50;99.90
14016;DHT22;7083;48.854;9.158;2023-04-06T00:53:40;-1.60;99.90
14016;DHT22;7083;48.854;9.158;2023-04-06T00:56:08;-1.60;99.90
14016;DHT22;7083;48.854;9.158;2023-04-06T00:58:35;-1.60;99.90
14016;DHT22;7083;48.854;9.158;2023-04-06T01:01:03;-1.60;99.90
14016;DHT22;7083;48.854;9.158;2023-04-06T01:03:30;-1.60;99.90
14016;DHT22;7083;48.854;9.158;2023-04-06T01:05:57;-1.60;99.90
14016;DHT22;7083;48.854;9.158;2023-04-06T01:08:24;-1.50;99.90
14016;DHT22;7083;48.854;9.158;2023-04-06T01:10:51;-1.60;99.90
14016;DHT22;7083;48.854;9.158;2023-04-06T01:13:19;-1.70;99.90
14016;DHT22;7083;48.854;9.158;2023-04-06T01:15:46;-1.70;99.90
14016;DHT22;7083;48.854;9.158;2023-04-06T01:18:13;-1.70;99.90
14016;DHT22;7083;48.854;9.158;2023-04-06T01:20:40;-1.80;99.90
14016;DHT22;7083;48.854;9.158;2023-04-06T01:23:08;-1.80;99.90
14016;DHT22;7083;48.854;9.158;2023-04-06T01:25:35;-1.80;99.90
14016;DHT22;7083;48.854;9.158;2023-04-06T01:28:02;-1.80;99.90
14016;DHT22;7083;48.854;9.158;2023-04-06T01:30:28;-1.80;99.90
14016;DHT22;7083;48.854;9.158;2023-04-06T01:32:55;-1.80;99.90
14016;DHT22;7083;48.854;9.158;2023-04-06T01:35:22;-1.80;99.90
14016;DHT22;7083;48.854;9.158;2023-04-06T01:37:49;-1.90;99.90
14016;DHT22;7083;48.854;9.158;2023-04-06T01:40:17;-1.90;99.90
14016;DHT22;7083;48.854;9.158;2023-04-06T01:42:44;-1.90;99.90
14016;DHT22;7083;48.854;9.158;2023-04-06T01:45:11;-1.90;99.90
14016;DHT22;7083;48.854;9.158;2023-04-06T01:47:37;-1.90;99.90
14016;DHT22;7083;48.854;9.158;2023-04-06T01:50:05;-1.90;99.90
14016;DHT22;7083;48.854;9.158;2023-04-06T01:52:32;-2.00;99.90
14016;DHT22;7083;48.854;9.158;2023-04-06T01:54:59;-2.00;99.90
14016;DHT22;7083;48.854;9.158;2023-04-06T01:57:27;-2.00;99.90
14016;DHT22;7083;48.854;9.158;2023-04-06T01:59:54;-2.00;99.90
14016;DHT22;7083;48.854;9.158;2023-04-06T02:02:20;-2.00;99.90
14016;DHT22;7083;48.854;9.158;2023-04-06T02:04:47;-2.00;99.90
14016;DHT22;7083;48.854;9.158;2023-04-06T02:07:14;-2.00;99.90
14016;DHT22;7083;48.854;9.158;2023-04-06T02:09:40;-2.00;99.90
14016;DHT22;7083;48.854;9.158;2023-04-06T02:12:07;-2.00;99.90
14016;DHT22;7083;48.854;9.158;2023-04-06T02:14:35;-2.00;99.90
14016;DHT22;7083;48.854;9.158;2023-04-06T02:17:02;-2.10;99.90
14016;DHT22;7083;48.854;9.158;2023-04-06T02:19:28;-2.10;99.90
14016;DHT22;7083;48.854;9.158;2023-04-06T02:21:55;-2.10;99.90
14016;DHT22;7083;48.854;9.158;2023-04-06T02:24:22;-2.10;99.90
14016;DHT22;7083;48.854;9.158;2023-04-06T02:26:49;-2.10;99.90
14016;DHT22;7083;48.854;9.158;2023-04-06T02:29:15;-2.10;99.90
14016;DHT22;7083;48.854;9.158;2023-04-06T02:31:43;-2.10;99.90
14016;DHT22;7083;48.854;9.158;2023-04-06T02:34:10;-2.10;99.90
14016;DHT22;7083;48.854;9.158;2023-04-06T02:36:42;-2.10;99.90
14016;DHT22;7083;48.854;9.158;2023-04-06T02:39:09;-2.20;99.90
14016;DHT22;7083;48.854;9.158;2023-04-06T02:41:36;-2.20;99.90
14016;DHT22;7083;48.854;9.158;2023-04-06T02:44:03;-2.20;99.90
14016;DHT22;7083;48.854;9.158;2023-04-06T02:46:29;-2.20;99.90
14016;DHT22;7083;48.854;9.158;2023-04-06T02:48:57;-2.20;99.90
14016;DHT22;7083;48.854;9.158;2023-04-06T02:51:25;-2.20;99.90
14016;DHT22;7083;48.854;9.158;2023-04-06T02:53:52;-2.20;99.90
14016;DHT22;7083;48.854;9.158;2023-04-06T02:56:19;-2.20;99.90
14016;DHT22;7083;48.854;9.158;2023-04-06T02:58:47;-2.30;99.90
14016;DHT22;7083;48.854;9.158;2023-04-06T03:01:13;-2.30;99.90
14016;DHT22;7083;48.854;9.158;2023-04-06T03:03:40;-2.30;99.90
14016;DHT22;7083;48.854;9.158;2023-04-06T03:06:08;-2.30;99.90
14016;DHT22;7083;48.854;9.158;2023-04-06T03:08:35;-2.20;99.90
14016;DHT22;7083;48.854;9.158;2023-04-06T03:11:02;-2.30;99.90
14016;DHT22;7083;48.854;9.158;2023-04-06T03:13:28;-2.30;99.90
14016;DHT22;7083;48.854;9.158;2023-04-06T03:15:55;-2.30;99.90
14016;DHT22;7083;48.854;9.158;2023-04-06T03:18:23;-2.30;99.90
14016;DHT22;7083;48.854;9.158;2023-04-06T03:20:50;-2.30;99.90
14016;DHT22;7083;48.854;9.158;2023-04-06T03:23:20;-2.30;99.90
14016;DHT22;7083;48.854;9.158;2023-04-06T03:25:47;-2.30;99.90
14016;DHT22;7083;48.854;9.158;2023-04-06T03:28:13;-2.40;99.90
14016;DHT22;7083;48.854;9.158;2023-04-06T03:30:41;-2.30;99.90
14016;DHT22;7083;48.854;9.158;2023-04-06T03:33:08;-2.40;99.90
14016;DHT22;7083;48.854;9.158;2023-04-06T03:35:34;-2.40;99.90
14016;DHT22;7083;48.854;9.158;2023-04-06T03:38:02;-2.40;99.90
14016;DHT22;7083;48.854;9.158;2023-04-06T03:40:30;-2.40;99.90
14016;DHT22;7083;48.854;9.158;2023-04-06T03:42:57;-2.40;99.90
14016;DHT22;7083;48.854;9.158;2023-04-06T03:45:23;-2.40;99.90
14016;DHT22;7083;48.854;9.158;2023-04-06T03:47:50;-2.40;99.90
14016;DHT22;7083;48.854;9.158;2023-04-06T03:50:17;-2.40;99.90
14016;DHT22;7083;48.854;9.158;2023-04-06T03:52:43;-2.40;99.90
14016;DHT22;7083;48.854;9.158;2023-04-06T03:55:10;-2.40;99.90
14016;DHT22;7083;48.854;9.158;2023-04-06T03:57:38;-2.50;99.90
14016;DHT22;7083;48.854;9.158;2023-04-06T04:00:06;-2.50;99.90
14016;DHT22;7083;48.854;9.158;2023-04-06T04:02:33;-2.50;99.90
14016;DHT22;7083;48.854;9.158;2023-04-06T04:04:59;-2.50;99.90
14016;DHT22;7083;48.854;9.158;2023-04-06T04:07:26;-2.50;99.90
14016;DHT22;7083;48.854;9.158;2023-04-06T04:09:53;-2.50;99.90
14016;DHT22;7083;48.854;9.158;2023-04-06T04:12:20;-2.50;99.90
14016;DHT22;7083;48.854;9.158;2023-04-06T04:14:48;-2.50;99.90
14016;DHT22;7083;48.854;9.158;2023-04-06T04:17:15;-2.60;99.90
14016;DHT22;7083;48.854;9.158;2023-04-06T04:19:41;-2.60;99.90
14016;DHT22;7083;48.854;9.158;2023-04-06T04:22:08;-2.60;99.90
14016;DHT22;7083;48.854;9.158;2023-04-06T04:24:35;-2.60;99.90
14016;DHT22;7083;48.854;9.158;2023-04-06T04:27:01;-2.60;99.90
14016;DHT22;7083;48.854;9.158;2023-04-06T04:29:28;-2.60;99.90
14016;DHT22;7083;48.854;9.158;2023-04-06T04:31:56;-2.60;99.90
14016;DHT22;7083;48.854;9.158;2023-04-06T04:34:23;-2.70;99.90
14016;DHT22;7083;48.854;9.158;2023-04-06T04:36:50;-2.70;99.90
14016;DHT22;7083;48.854;9.158;2023-04-06T04:39:17;-2.70;99.90
14016;DHT22;7083;48.854;9.158;2023-04-06T04:41:44;-2.70;99.90
14016;DHT22;7083;48.854;9.158;2023-04-06T04:44:10;-2.70;99.90
14016;DHT22;7083;48.854;9.158;2023-04-06T04:46:37;-2.60;99.90
14016;DHT22;7083;48.854;9.158;2023-04-06T04:49:05;-2.70;99.90
14016;DHT22;7083;48.854;9.158;2023-04-06T04:51:32;-2.70;99.90
14016;DHT22;7083;48.854;9.158;2023-04-06T04:53:59;-2.60;99.90
14016;DHT22;7083;48.854;9.158;2023-04-06T04:56:25;-2.70;99.90
14016;DHT22;7083;48.854;9.158;2023-04-06T04:58:52;-2.70;99.90
14016;DHT22;7083;48.854;9.158;2023-04-06T05:01:19;-2.60;99.90
14016;DHT22;7083;48.854;9.158;2023-04-06T05:03:46;-2.70;99.90
14016;DHT22;7083;48.854;9.158;2023-04-06T05:06:14;-2.60;99.90
14016;DHT22;7083;48.854;9.158;2023-04-06T05:08:41;-2.50;99.90
14016;DHT22;7083;48.854;9.158;2023-04-06T05:11:08;-2.40;99.90
14016;DHT22;7083;48.854;9.158;2023-04-06T05:13:35;-2.40;99.90
14016;DHT22;7083;48.854;9.158;2023-04-06T05:16:01;-2.30;99.90
14016;DHT22;7083;48.854;9.158;2023-04-06T05:18:28;-2.30;99.90
14016;DHT22;7083;48.854;9.158;2023-04-06T05:20:55;-2.20;99.90
14016;DHT22;7083;48.854;9.158;2023-04-06T05:23:23;-2.20;99.90
14016;DHT22;7083;48.854;9.158;2023-04-06T05:25:50;-2.20;99.90
14016;DHT22;7083;48.854;9.158;2023-04-06T05:28:17;-2.10;99.90
14016;DHT22;7083;48.854;9.158;2023-04-06T05:30:44;-2.00;99.90
14016;DHT22;7083;48.854;9.158;2023-04-06T05:33:11;-1.90;99.90
14016;DHT22;7083;48.854;9.158;2023-04-06T05:35:38;-1.90;99.90
14016;DHT22;7083;48.854;9.158;2023-04-06T05:38:07;-1.80;99.90
14016;DHT22;7083;48.854;9.158;2023-04-06T05:40:35;-1.80;99.90
14016;DHT22;7083;48.854;9.158;2023-04-06T05:43:02;-1.70;99.90
14016;DHT22;7083;48.854;9.158;2023-04-06T05:45:29;-1.70;99.90
14016;DHT22;7083;48.854;9.158;2023-04-06T05:47:56;-1.50;99.90
14016;DHT22;7083;48.854;9.158;2023-04-06T05:50:22;-1.50;99.90
14016;DHT22;7083;48.854;9.158;2023-04-06T05:52:49;-1.50;99.90
14016;DHT22;7083;48.854;9.158;2023-04-06T05:55:16;-1.40;99.90
14016;DHT22;7083;48.854;9.158;2023-04-06T05:57:44;-1.30;99.90
14016;DHT22;7083;48.854;9.158;2023-04-06T06:00:12;-1.20;99.90
14016;DHT22;7083;48.854;9.158;2023-04-06T06:02:39;-1.20;99.90
14016;DHT22;7083;48.854;9.158;2023-04-06T06:05:08;-1.10;99.90
14016;DHT22;7083;48.854;9.158;2023-04-06T06:07:35;-1.00;99.90
14016;DHT22;7083;48.854;9.158;2023-04-06T06:10:01;-0.90;99.90
14016;DHT22;7083;48.854;9.158;2023-04-06T06:12:28;-0.80;99.90
14016;DHT22;7083;48.854;9.158;2023-04-06T06:14:57;-0.70;99.90
14016;DHT22;7083;48.854;9.158;2023-04-06T06:17:23;-0.60;99.90
14016;DHT22;7083;48.854;9.158;2023-04-06T06:19:50;-0.50;99.90
14016;DHT22;7083;48.854;9.158;2023-04-06T06:22:17;-0.40;99.90
14016;DHT22;7083;48.854;9.158;2023-04-06T06:24:43;-0.30;99.90
14016;DHT22;7083;48.854;9.158;2023-04-06T06:27:10;-0.20;99.90
14016;DHT22;7083;48.854;9.158;2023-04-06T06:29:37;-0.10;99.90
14016;DHT22;7083;48.854;9.158;2023-04-06T06:32:05;0.00;99.90
14016;DHT22;7083;48.854;9.158;2023-04-06T06:34:31;0.10;99.90
14016;DHT22;7083;48.854;9.158;2023-04-06T06:36:58;0.20;99.90
14016;DHT22;7083;48.854;9.158;2023-04-06T06:39:25;0.30;99.90
14016;DHT22;7083;48.854;9.158;2023-04-06T06:41:51;0.40;99.90
14016;DHT22;7083;48.854;9.158;2023-04-06T06:44:19;0.50;99.90
14016;DHT22;7083;48.854;9.158;2023-04-06T06:46:47;0.60;99.90
14016;DHT22;7083;48.854;9.158;2023-04-06T06:49:16;0.70;99.90
14016;DHT22;7083;48.854;9.158;2023-04-06T06:51:42;0.70;99.90
14016;DHT22;7083;48.854;9.158;2023-04-06T06:54:09;0.90;99.90
14016;DHT22;7083;48.854;9.158;2023-04-06T06:56:36;1.00;99.90
14016;DHT22;7083;48.854;9.158;2023-04-06T06:59:03;1.00;99.90
14016;DHT22;7083;48.854;9.158;2023-04-06T07:01:32;1.20;99.90
14016;DHT22;7083;48.854;9.158;2023-04-06T07:03:58;1.30;99.90
14016;DHT22;7083;48.854;9.158;2023-04-06T07:06:26;1.40;99.90
14016;DHT22;7083;48.854;9.158;2023-04-06T07:08:53;1.50;99.90
14016;DHT22;7083;48.854;9.158;2023-04-06T07:11:20;1.60;99.90
14016;DHT22;7083;48.854;9.158;2023-04-06T07:13:47;1.70;99.90
14016;DHT22;7083;48.854;9.158;2023-04-06T07:16:13;1.80;99.90
14016;DHT22;7083;48.854;9.158;2023-04-06T07:18:40;1.90;99.90
14016;DHT22;7083;48.854;9.158;2023-04-06T07:21:07;2.00;99.90
14016;DHT22;7083;48.854;9.158;2023-04-06T07:23:35;2.20;99.90
14016;DHT22;7083;48.854;9.158;2023-04-06T07:26:02;2.30;99.90
14016;DHT22;7083;48.854;9.158;2023-04-06T07:28:28;2.40;99.90
14016;DHT22;7083;48.854;9.158;2023-04-06T07:30:55;2.50;99.90
14016;DHT22;7083;48.854;9.158;2023-04-06T07:33:22;2.60;99.90
14016;DHT22;7083;48.854;9.158;2023-04-06T07:35:48;2.70;99.90
14016;DHT22;7083;48.854;9.158;2023-04-06T07:38:16;2.90;99.90
14016;DHT22;7083;48.854;9.158;2023-04-06T07:40:44;3.00;99.90
14016;DHT22;7083;48.854;9.158;2023-04-06T07:43:10;3.10;99.90
14016;DHT22;7083;48.854;9.158;2023-04-06T07:45:37;3.30;99.90
14016;DHT22;7083;48.854;9.158;2023-04-06T07:48:04;3.40;99.90
14016;DHT22;7083;48.854;9.158;2023-04-06T07:50:30;3.40;99.90
14016;DHT22;7083;48.854;9.158;2023-04-06T07:52:57;3.60;99.90
14016;DHT22;7083;48.854;9.158;2023-04-06T07:55:25;3.70;99.90
14016;DHT22;7083;48.854;9.158;2023-04-06T07:57:53;3.80;99.90
14016;DHT22;7083;48.854;9.158;2023-04-06T08:00:20;4.00;99.20
14016;DHT22;7083;48.854;9.158;2023-04-06T08:02:47;4.10;98.10
14016;DHT22;7083;48.854;9.158;2023-04-06T08:05:14;4.20;97.70
14016;DHT22;7083;48.854;9.158;2023-04-06T08:07:40;4.30;97.40
14016;DHT22;7083;48.854;9.158;2023-04-06T08:10:08;4.50;96.80
14016;DHT22;7083;48.854;9.158;2023-04-06T08:12:35;4.60;96.00
14016;DHT22;7083;48.854;9.158;2023-04-06T08:15:04;4.70;95.20
14016;DHT22;7083;48.854;9.158;2023-04-06T08:17:31;4.80;94.80
14016;DHT22;7083;48.854;9.158;2023-04-06T08:19:59;4.90;94.80
14016;DHT22;7083;48.854;9.158;2023-04-06T08:22:26;5.10;93.60
14016;DHT22;7083;48.854;9.158;2023-04-06T08:24:52;5.20;93.10
14016;DHT22;7083;48.854;9.158;2023-04-06T08:27:19;5.30;92.60
14016;DHT22;7083;48.854;9.158;2023-04-06T08:29:46;5.40;92.20
14016;DHT22;7083;48.854;9.158;2023-04-06T08:32:15;5.50;91.50
14016;DHT22;7083;48.854;9.158;2023-04-06T08:34:41;5.60;91.00
14016;DHT22;7083;48.854;9.158;2023-04-06T08:37:08;5.70;90.90
14016;DHT22;7083;48.854;9.158;2023-04-06T08:39:35;5.90;90.30
14016;DHT22;7083;48.854;9.158;2023-04-06T08:42:01;6.00;90.30
14016;DHT22;7083;48.854;9.158;2023-04-06T08:44:29;6.10;87.40
14016;DHT22;7083;48.854;9.158;2023-04-06T08:46:56;6.20;86.40
14016;DHT22;7083;48.854;9.158;2023-04-06T08:49:25;6.30;84.90
14016;DHT22;7083;48.854;9.158;2023-04-06T08:51:52;6.40;83.20
14016;DHT22;7083;48.854;9.158;2023-04-06T08:54:18;6.50;83.10
14016;DHT22;7083;48.854;9.158;2023-04-06T08:56:46;6.60;79.70
14016;DHT22;7083;48.854;9.158;2023-04-06T08:59:13;6.70;79.10
14016;DHT22;7083;48.854;9.158;2023-04-06T09:01:42;6.80;79.30
14016;DHT22;7083;48.854;9.158;2023-04-06T09:04:11;6.90;79.20
14016;DHT22;7083;48.854;9.158;2023-04-06T09:06:39;7.00;77.80
14016;DHT22;7083;48.854;9.158;2023-04-06T09:09:06;7.10;77.00
14016;DHT22;7083;48.854;9.158;2023-04-06T09:11:43;7.20;76.40
14016;DHT22;7083;48.854;9.158;2023-04-06T09:14:10;7.30;76.10
14016;DHT22;7083;48.854;9.158;2023-04-06T09:16:40;7.50;74.60
14016;DHT22;7083;48.854;9.158;2023-04-06T09:19:08;7.50;74.40
14016;DHT22;7083;48.854;9.158;2023-04-06T09:21:35;7.70;71.10
14016;DHT22;7083;48.854;9.158;2023-04-06T09:24:04;7.70;72.00
14016;DHT22;7083;48.854;9.158;2023-04-06T09:26:31;7.80;72.60
14016;DHT22;7083;48.854;9.158;2023-04-06T09:28:59;7.90;72.30
14016;DHT22;7083;48.854;9.158;2023-04-06T09:31:27;8.00;73.20
14016;DHT22;7083;48.854;9.158;2023-04-06T09:33:55;8.10;72.10
14016;DHT22;7083;48.854;9.158;2023-04-06T09:36:29;8.20;69.60
14016;DHT22;7083;48.854;9.158;2023-04-06T09:38:58;8.30;69.60
14016;DHT22;7083;48.854;9.158;2023-04-06T09:41:28;8.40;68.30
14016;DHT22;7083;48.854;9.158;2023-04-06T09:44:02;8.40;66.70
14016;DHT22;7083;48.854;9.158;2023-04-06T09:46:31;8.50;66.90
14016;DHT22;7083;48.854;9.158;2023-04-06T09:48:59;8.60;67.90
14016;DHT22;7083;48.854;9.158;2023-04-06T09:51:31;8.70;68.30
14016;DHT22;7083;48.854;9.158;2023-04-06T09:53:59;8.80;66.10
14016;DHT22;7083;48.854;9.158;2023-04-06T09:56:36;8.90;65.00
14016;DHT22;7083;48.854;9.158;2023-04-06T09:59:09;8.90;65.10
14016;DHT22;7083;48.854;9.158;2023-04-06T10:01:37;9.00;63.00
14016;DHT22;7083;48.854;9.158;2023-04-06T10:04:13;9.10;63.30
14016;DHT22;7083;48.854;9.158;2023-04-06T10:06:46;9.20;64.30
14016;DHT22;7083;48.854;9.158;2023-04-06T10:09:17;9.50;63.90
14016;DHT22;7083;48.854;9.158;2023-04-06T10:11:46;9.50;61.00
14016;DHT22;7083;48.854;9.158;2023-04-06T10:14:14;9.60;57.80
14016;DHT22;7083;48.854;9.158;2023-04-06T10:16:42;9.60;57.90
14016;DHT22;7083;48.854;9.158;2023-04-06T10:19:13;9.60;57.90
14016;DHT22;7083;48.854;9.158;2023-04-06T10:21:45;9.70;58.00
14016;DHT22;7083;48.854;9.158;2023-04-06T10:24:14;9.70;59.40
14016;DHT22;7083;48.854;9.158;2023-04-06T10:26:42;9.80;58.80
14016;DHT22;7083;48.854;9.158;2023-04-06T10:29:10;10.10;59.00
14016;DHT22;7083;48.854;9.158;2023-04-06T10:31:41;10.20;56.80
14016;DHT22;7083;48.854;9.158;2023-04-06T10:34:08;10.20;56.90
14016;DHT22;7083;48.854;9.158;2023-04-06T10:36:35;10.30;58.70
14016;DHT22;7083;48.854;9.158;2023-04-06T10:39:03;10.30;59.40
14016;DHT22;7083;48.854;9.158;2023-04-06T10:41:34;10.40;58.90
14016;DHT22;7083;48.854;9.158;2023-04-06T10:44:01;10.40;57.80
14016;DHT22;7083;48.854;9.158;2023-04-06T10:46:31;10.40;57.80
14016;DHT22;7083;48.854;9.158;2023-04-06T10:48:58;10.50;58.00
14016;DHT22;7083;48.854;9.158;2023-04-06T10:51:27;10.50;56.80
14016;DHT22;7083;48.854;9.158;2023-04-06T10:53:54;10.50;55.40
14016;DHT22;7083;48.854;9.158;2023-04-06T10:56:23;10.50;55.60
14016;DHT22;7083;48.854;9.158;2023-04-06T10:58:52;10.60;59.10
14016;DHT22;7083;48.854;9.158;2023-04-06T11:01:20;10.80;57.80
14016;DHT22;7083;48.854;9.158;2023-04-06T11:03:49;11.00;57.00
14016;DHT22;7083;48.854;9.158;2023-04-06T11:06:20;11.10;57.10
14016;DHT22;7083;48.854;9.158;2023-04-06T11:08:47;11.30;56.60
14016;DHT22;7083;48.854;9.158;2023-04-06T11:11:15;11.30;54.20
14016;DHT22;7083;48.854;9.158;2023-04-06T11:13:45;11.30;53.40
14016;DHT22;7083;48.854;9.158;2023-04-06T11:16:13;11.30;53.80
14016;DHT22;7083;48.854;9.158;2023-04-06T11:18:49;11.40;54.80
14016;DHT22;7083;48.854;9.158;2023-04-06T11:21:16;11.40;54.60
14016;DHT22;7083;48.854;9.158;2023-04-06T11:23:43;11.60;52.60
14016;DHT22;7083;48.854;9.158;2023-04-06T11:26:10;11.70;53.50
14016;DHT22;7083;48.854;9.158;2023-04-06T11:28:38;11.80;53.40
14016;DHT22;7083;48.854;9.158;2023-04-06T11:31:05;12.10;54.10
14016;DHT22;7083;48.854;9.158;2023-04-06T11:33:35;13.10;52.50
14016;DHT22;7083;48.854;9.158;2023-04-06T11:36:05;12.30;51.40
14016;DHT22;7083;48.854;9.158;2023-04-06T11:38:32;12.50;51.20
14016;DHT22;7083;48.854;9.158;2023-04-06T11:41:00;12.60;51.10
14016;DHT22;7083;48.854;9.158;2023-04-06T11:43:28;12.80;51.50
14016;DHT22;7083;48.854;9.158;2023-04-06T11:46:00;14.40;52.60
14016;DHT22;7083;48.854;9.158;2023-04-06T11:48:28;13.00;50.40
14016;DHT22;7083;48.854;9.158;2023-04-06T11:50:55;13.30;52.00
14016;DHT22;7083;48.854;9.158;2023-04-06T11:53:24;13.20;50.90
14016;DHT22;7083;48.854;9.158;2023-04-06T11:55:51;13.30;51.70
14016;DHT22;7083;48.854;9.158;2023-04-06T11:58:18;13.50;52.60
14016;DHT22;7083;48.854;9.158;2023-04-06T12:00:44;13.50;52.50
14016;DHT22;7083;48.854;9.158;2023-04-06T12:03:12;13.40;50.40
14016;DHT22;7083;48.854;9.158;2023-04-06T12:05:39;13.30;48.90
14016;DHT22;7083;48.854;9.158;2023-04-06T12:08:06;13.30;49.30
14016;DHT22;7083;48.854;9.158;2023-04-06T12:10:34;13.40;49.90
14016;DHT22;7083;48.854;9.158;2023-04-06T12:13:01;13.60;48.30
14016;DHT22;7083;48.854;9.158;2023-04-06T12:15:27;15.10;50.80
14016;DHT22;7083;48.854;9.158;2023-04-06T12:17:54;13.90;49.50
14016;DHT22;7083;48.854;9.158;2023-04-06T12:20:21;14.10;48.30
14016;DHT22;7083;48.854;9.158;2023-04-06T12:22:48;14.40;47.80
14016;DHT22;7083;48.854;9.158;2023-04-06T12:25:14;14.70;47.80
14016;DHT22;7083;48.854;9.158;2023-04-06T12:27:43;14.70;49.60
14016;DHT22;7083;48.854;9.158;2023-04-06T12:30:10;14.90;47.20
14016;DHT22;7083;48.854;9.158;2023-04-06T12:32:37;14.70;46.20
14016;DHT22;7083;48.854;9.158;2023-04-06T12:35:04;15.00;48.40
14016;DHT22;7083;48.854;9.158;2023-04-06T12:37:31;15.00;49.80
14016;DHT22;7083;48.854;9.158;2023-04-06T12:39:58;15.10;47.40
14016;DHT22;7083;48.854;9.158;2023-04-06T12:42:25;15.20;46.60
14016;DHT22;7083;48.854;9.158;2023-04-06T12:44:53;15.30;47.10
14016;DHT22;7083;48.854;9.158;2023-04-06T12:47:20;15.40;46.10
14016;DHT22;7083;48.854;9.158;2023-04-06T12:49:48;15.60;46.20
14016;DHT22;7083;48.854;9.158;2023-04-06T12:52:15;15.70;46.10
14016;DHT22;7083;48.854;9.158;2023-04-06T12:54:42;16.00;45.00
14016;DHT22;7083;48.854;9.158;2023-04-06T12:57:09;16.80;45.80
14016;DHT22;7083;48.854;9.158;2023-04-06T12:59:36;16.40;46.40
14016;DHT22;7083;48.854;9.158;2023-04-06T13:02:04;16.40;45.60
14016;DHT22;7083;48.854;9.158;2023-04-06T13:04:31;16.90;46.10
14016;DHT22;7083;48.854;9.158;2023-04-06T13:06:58;17.20;41.90
14016;DHT22;7083;48.854;9.158;2023-04-06T13:09:25;17.20;42.70
14016;DHT22;7083;48.854;9.158;2023-04-06T13:11:51;17.10;42.80
14016;DHT22;7083;48.854;9.158;2023-04-06T13:14:18;17.60;43.50
14016;DHT22;7083;48.854;9.158;2023-04-06T13:16:46;18.00;43.40
14016;DHT22;7083;48.854;9.158;2023-04-06T13:19:14;17.90;42.10
14016;DHT22;7083;48.854;9.158;2023-04-06T13:21:41;18.20;41.70
14016;DHT22;7083;48.854;9.158;2023-04-06T13:24:08;18.40;40.80
14016;DHT22;7083;48.854;9.158;2023-04-06T13:26:35;18.70;41.00
14016;DHT22;7083;48.854;9.158;2023-04-06T13:29:02;19.60;41.10
14016;DHT22;7083;48.854;9.158;2023-04-06T13:31:29;20.40;40.00
14016;DHT22;7083;48.854;9.158;2023-04-06T13:33:56;21.50;39.60
14016;DHT22;7083;48.854;9.158;2023-04-06T13:36:25;22.60;39.80
14016;DHT22;7083;48.854;9.158;2023-04-06T13:38:52;23.30;37.40
14016;DHT22;7083;48.854;9.158;2023-04-06T13:41:20;23.50;35.50
14016;DHT22;7083;48.854;9.158;2023-04-06T13:43:47;23.70;35.40
14016;DHT22;7083;48.854;9.158;2023-04-06T13:46:15;24.60;36.40
14016;DHT22;7083;48.854;9.158;2023-04-06T13:48:42;23.80;34.50
14016;DHT22;7083;48.854;9.158;2023-04-06T13:51:09;23.50;34.60
14016;DHT22;7083;48.854;9.158;2023-04-06T13:53:37;23.20;34.30
14016;DHT22;7083;48.854;9.158;2023-04-06T13:56:05;22.40;36.70
14016;DHT22;7083;48.854;9.158;2023-04-06T13:58:32;21.80;36.10
14016;DHT22;7083;48.854;9.158;2023-04-06T14:01:02;20.70;35.80
14016;DHT22;7083;48.854;9.158;2023-04-06T14:03:29;20.40;38.00
14016;DHT22;7083;48.854;9.158;2023-04-06T14:05:56;20.10;38.10
14016;DHT22;7083;48.854;9.158;2023-04-06T14:08:23;19.90;37.80
14016;DHT22;7083;48.854;9.158;2023-04-06T14:10:51;20.20;38.40
14016;DHT22;7083;48.854;9.158;2023-04-06T14:13:19;20.60;39.60
14016;DHT22;7083;48.854;9.158;2023-04-06T14:15:46;21.20;37.00
14016;DHT22;7083;48.854;9.158;2023-04-06T14:18:13;21.90;37.50
14016;DHT22;7083;48.854;9.158;2023-04-06T14:20:39;22.10;36.20
14016;DHT22;7083;48.854;9.158;2023-04-06T14:23:07;22.40;37.40
14016;DHT22;7083;48.854;9.158;2023-04-06T14:25:33;23.00;36.00
14016;DHT22;7083;48.854;9.158;2023-04-06T14:28:02;23.50;35.90
14016;DHT22;7083;48.854;9.158;2023-04-06T14:30:29;24.10;34.30
14016;DHT22;7083;48.854;9.158;2023-04-06T14:32:57;24.30;33.70
14016;DHT22;7083;48.854;9.158;2023-04-06T14:35:24;24.60;35.30
14016;DHT22;7083;48.854;9.158;2023-04-06T14:37:53;24.50;35.20
14016;DHT22;7083;48.854;9.158;2023-04-06T14:40:20;24.30;34.10
14016;DHT22;7083;48.854;9.158;2023-04-06T14:42:47;24.90;35.00
14016;DHT22;7083;48.854;9.158;2023-04-06T14:45:15;24.80;33.90
14016;DHT22;7083;48.854;9.158;2023-04-06T14:47:42;24.70;33.20
14016;DHT22;7083;48.854;9.158;2023-04-06T14:50:09;24.40;33.20
14016;DHT22;7083;48.854;9.158;2023-04-06T14:52:36;24.20;32.90
14016;DHT22;7083;48.854;9.158;2023-04-06T14:55:04;23.80;33.00
14016;DHT22;7083;48.854;9.158;2023-04-06T14:57:31;23.40;34.60
14016;DHT22;7083;48.854;9.158;2023-04-06T14:59:58;23.20;33.40
14016;DHT22;7083;48.854;9.158;2023-04-06T15:02:26;22.70;36.00
14016;DHT22;7083;48.854;9.158;2023-04-06T15:04:52;22.10;34.90
14016;DHT22;7083;48.854;9.158;2023-04-06T15:07:19;21.70;36.70
14016;DHT22;7083;48.854;9.158;2023-04-06T15:09:46;22.00;37.10
14016;DHT22;7083;48.854;9.158;2023-04-06T15:12:13;22.30;36.10
14016;DHT22;7083;48.854;9.158;2023-04-06T15:14:39;22.80;38.00
14016;DHT22;7083;48.854;9.158;2023-04-06T15:17:06;21.60;36.00
14016;DHT22;7083;48.854;9.158;2023-04-06T15:19:34;21.50;35.90
14016;DHT22;7083;48.854;9.158;2023-04-06T15:22:01;21.10;35.80
14016;DHT22;7083;48.854;9.158;2023-04-06T15:24:28;20.80;37.80
14016;DHT22;7083;48.854;9.158;2023-04-06T15:26:55;20.50;40.50
14016;DHT22;7083;48.854;9.158;2023-04-06T15:29:22;20.40;38.80
14016;DHT22;7083;48.854;9.158;2023-04-06T15:31:50;20.10;39.30
14016;DHT22;7083;48.854;9.158;2023-04-06T15:34:17;20.10;40.10
14016;DHT22;7083;48.854;9.158;2023-04-06T15:36:45;19.60;38.50
14016;DHT22;7083;48.854;9.158;2023-04-06T15:39:12;19.20;39.70
14016;DHT22;7083;48.854;9.158;2023-04-06T15:41:39;19.00;41.00
14016;DHT22;7083;48.854;9.158;2023-04-06T15:44:05;18.60;42.50
14016;DHT22;7083;48.854;9.158;2023-04-06T15:46:32;18.50;39.90
14016;DHT22;7083;48.854;9.158;2023-04-06T15:48:59;18.40;42.10
14016;DHT22;7083;48.854;9.158;2023-04-06T15:51:26;18.30;41.00